createdAt,value
2022-12-22T00:02:38.621Z,5.41
2022-12-22T00:05:44.588Z,5.27
2022-12-22T00:08:30.297Z,5.23
2022-12-22T00:11:17.535Z,5.13
2022-12-22T00:14:04.949Z,5.02
2022-12-22T00:16:53.783Z,5.08
2022-12-22T00:19:39.447Z,4.97
2022-12-22T00:22:41.531Z,5.04
2022-12-22T00:25:32.664Z,4.97
2022-12-22T00:28:18.286Z,5.04
2022-12-22T00:31:05.082Z,4.95
2022-12-22T00:33:50.736Z,4.92
2022-12-22T00:36:38.780Z,4.83
2022-12-22T00:39:31.875Z,4.88
2022-12-22T00:42:17.577Z,4.77
2022-12-22T00:45:02.751Z,4.72
2022-12-22T00:47:48.992Z,4.78
2022-12-22T00:50:35.485Z,4.78
2022-12-22T00:53:21.663Z,4.82
2022-12-22T00:56:07.324Z,4.83
2022-12-22T00:58:54.244Z,4.76
2022-12-22T01:01:39.642Z,4.69
2022-12-22T01:04:27.938Z,4.67
2022-12-22T01:07:13.508Z,4.77
2022-12-22T01:09:59.536Z,4.72
2022-12-22T01:12:46.683Z,4.78
2022-12-22T01:15:38.333Z,4.79
2022-12-22T01:18:24.669Z,4.81
2022-12-22T01:21:10.545Z,4.64
2022-12-22T01:23:56.468Z,4.62
2022-12-22T01:26:41.620Z,4.74
2022-12-22T01:29:26.961Z,4.57
2022-12-22T01:32:12.204Z,4.77
2022-12-22T01:34:57.462Z,4.76
2022-12-22T01:37:42.761Z,4.70
2022-12-22T01:40:37.883Z,4.69
2022-12-22T01:43:42.780Z,4.77
2022-12-22T01:47:04.946Z,4.82
2022-12-22T01:50:02.919Z,4.91
2022-12-22T01:52:53.875Z,4.98
2022-12-22T01:55:43.103Z,4.93
2022-12-22T01:58:41.783Z,5.15
2022-12-22T02:01:27.476Z,5.24
2022-12-22T02:04:13.349Z,5.23
2022-12-22T02:07:01.749Z,5.46
2022-12-22T02:10:15.506Z,5.58
2022-12-22T02:13:30.527Z,5.62
2022-12-22T02:16:37.565Z,5.72
2022-12-22T02:20:10.309Z,5.71
2022-12-22T02:23:34.679Z,5.76
2022-12-22T02:26:42.297Z,5.74
2022-12-22T02:29:29.553Z,5.94
2022-12-22T02:32:15.794Z,6.01
2022-12-22T02:35:01.539Z,6.10
2022-12-22T02:38:04.439Z,6.14
2022-12-22T02:41:13.463Z,6.20
2022-12-22T02:44:34.500Z,6.29
2022-12-22T02:47:36.907Z,6.25
2022-12-22T02:50:38.216Z,6.31
2022-12-22T02:53:25.456Z,6.33
2022-12-22T02:56:18.635Z,6.36
2022-12-22T02:59:04.067Z,6.36
2022-12-22T03:01:49.374Z,6.34
2022-12-22T03:04:34.731Z,6.31
2022-12-22T03:07:20.114Z,6.43
2022-12-22T03:10:05.439Z,6.42
2022-12-22T03:12:50.671Z,6.41
2022-12-22T03:15:35.758Z,6.34
2022-12-22T03:18:27.396Z,6.50
2022-12-22T03:21:13.682Z,6.45
2022-12-22T03:23:59.402Z,6.62
2022-12-22T03:26:27.145Z,6.50
2022-12-22T03:28:53.897Z,6.49
2022-12-22T03:31:20.889Z,6.59
2022-12-22T03:33:48.337Z,6.62
2022-12-22T03:36:15.091Z,6.52
2022-12-22T03:38:41.837Z,6.68
2022-12-22T03:41:28.679Z,6.62
2022-12-22T03:44:14.249Z,6.65
2022-12-22T03:46:41.003Z,6.65
2022-12-22T03:49:10.496Z,6.55
2022-12-22T03:51:48.942Z,6.75
2022-12-22T03:54:19.153Z,6.79
2022-12-22T03:56:47.013Z,6.81
2022-12-22T03:59:14.452Z,6.81
2022-12-22T04:01:46.159Z,6.78
2022-12-22T04:04:15.527Z,6.68
2022-12-22T04:06:42.522Z,6.79
2022-12-22T04:09:09.812Z,6.74
2022-12-22T04:11:55.787Z,6.81
2022-12-22T04:14:26.622Z,6.83
2022-12-22T04:16:58.364Z,6.82
2022-12-22T04:19:25.378Z,6.70
2022-12-22T04:21:52.163Z,6.87
2022-12-22T04:24:18.981Z,6.88
2022-12-22T04:26:45.789Z,6.79
2022-12-22T04:29:12.549Z,6.90
2022-12-22T04:31:39.333Z,6.88
2022-12-22T04:34:06.977Z,6.92
2022-12-22T04:36:33.745Z,7.01
2022-12-22T04:39:00.562Z,6.96
2022-12-22T04:41:27.313Z,6.96
2022-12-22T04:43:54.106Z,7.05
2022-12-22T04:46:21.025Z,7.05
2022-12-22T04:48:47.827Z,7.13
2022-12-22T04:51:14.626Z,6.97
2022-12-22T04:53:41.362Z,6.92
2022-12-22T04:56:08.848Z,7.15
2022-12-22T04:58:36.221Z,7.16
2022-12-22T05:01:13.345Z,7.17
2022-12-22T05:03:40.266Z,7.10
2022-12-22T05:06:07.594Z,7.17
2022-12-22T05:08:34.787Z,7.19
2022-12-22T05:11:03.085Z,7.17
2022-12-22T05:13:31.503Z,7.16
2022-12-22T05:16:16.201Z,7.24
2022-12-22T05:18:45.116Z,7.13
2022-12-22T05:21:19.248Z,7.21
2022-12-22T05:23:46.287Z,7.21
2022-12-22T05:26:15.075Z,7.10
2022-12-22T05:28:43.403Z,7.08
2022-12-22T05:31:20.307Z,7.21
2022-12-22T05:33:47.722Z,7.19
2022-12-22T05:36:15.292Z,7.24
2022-12-22T05:38:42.534Z,7.18
2022-12-22T05:41:09.357Z,7.04
2022-12-22T05:43:36.844Z,7.11
2022-12-22T05:46:10.089Z,7.01
2022-12-22T05:48:39.331Z,7.06
2022-12-22T05:51:08.349Z,7.17
2022-12-22T05:53:35.311Z,7.12
2022-12-22T05:56:02.091Z,7.13
2022-12-22T05:58:28.899Z,7.14
2022-12-22T06:00:59.864Z,7.16
2022-12-22T06:03:27.586Z,7.05
2022-12-22T06:05:54.772Z,7.18
2022-12-22T06:08:22.448Z,7.17
2022-12-22T06:10:49.413Z,7.31
2022-12-22T06:13:16.654Z,7.28
2022-12-22T06:15:43.405Z,7.10
2022-12-22T06:18:10.201Z,7.23
2022-12-22T06:20:36.993Z,7.15
2022-12-22T06:23:03.846Z,7.09
2022-12-22T06:25:30.669Z,7.12
2022-12-22T06:27:57.531Z,7.02
2022-12-22T06:30:30.992Z,7.00
2022-12-22T06:33:01.002Z,6.92
2022-12-22T06:35:30.802Z,6.92
2022-12-22T06:37:57.531Z,6.89
2022-12-22T06:40:24.290Z,6.90
2022-12-22T06:43:09.839Z,6.99
2022-12-22T06:45:41.049Z,6.97
2022-12-22T06:48:09.591Z,6.80
2022-12-22T06:50:36.481Z,6.93
2022-12-22T06:53:04.287Z,6.96
2022-12-22T06:55:31.180Z,7.01
2022-12-22T06:57:58.068Z,6.98
2022-12-22T07:00:25.180Z,7.03
2022-12-22T07:02:52.207Z,7.03
2022-12-22T07:05:19.184Z,7.06
2022-12-22T07:07:46.125Z,7.02
2022-12-22T07:10:13.219Z,6.95
2022-12-22T07:12:39.956Z,6.85
2022-12-22T07:15:09.215Z,6.87
2022-12-22T07:17:35.968Z,6.84
2022-12-22T07:20:02.917Z,6.76
2022-12-22T07:22:30.990Z,6.71
2022-12-22T07:24:58.931Z,6.69
2022-12-22T07:27:25.908Z,6.61
2022-12-22T07:29:52.695Z,6.67
2022-12-22T07:32:19.468Z,6.54
2022-12-22T07:34:46.510Z,6.53
2022-12-22T07:37:13.950Z,6.48
2022-12-22T07:39:40.815Z,6.44
2022-12-22T07:42:27.410Z,6.60
2022-12-22T07:44:54.148Z,6.53
2022-12-22T07:47:20.905Z,6.46
2022-12-22T07:50:06.216Z,6.58
2022-12-22T07:52:33.070Z,6.71
2022-12-22T07:55:00.061Z,6.69
2022-12-22T07:57:26.828Z,6.68
2022-12-22T07:59:53.852Z,6.75
2022-12-22T08:02:20.708Z,6.82
2022-12-22T08:04:47.682Z,6.85
2022-12-22T08:07:14.440Z,6.87
2022-12-22T08:09:41.203Z,6.87
2022-12-22T08:12:08.165Z,6.86
2022-12-22T08:14:34.998Z,6.83
2022-12-22T08:17:01.752Z,6.91
2022-12-22T08:19:28.633Z,6.87
2022-12-22T08:21:55.419Z,6.83
2022-12-22T08:24:22.311Z,7.04
2022-12-22T08:26:55.399Z,7.12
2022-12-22T08:29:28.916Z,7.27
2022-12-22T08:31:55.910Z,7.26
2022-12-22T08:34:22.917Z,7.20
2022-12-22T08:36:55.340Z,7.21
2022-12-22T08:39:24.029Z,7.20
2022-12-22T08:41:51.004Z,7.36
2022-12-22T08:44:27.969Z,7.31
2022-12-22T08:46:58.016Z,7.35
2022-12-22T08:49:26.181Z,7.44
2022-12-22T08:51:53.699Z,7.49
2022-12-22T08:54:21.286Z,7.51
2022-12-22T08:56:48.246Z,7.41
2022-12-22T08:59:15.131Z,7.59
2022-12-22T09:01:50.655Z,7.67
2022-12-22T09:04:21.293Z,7.67
2022-12-22T09:06:49.163Z,7.74
2022-12-22T09:09:16.695Z,7.77
2022-12-22T09:11:44.291Z,7.86
2022-12-22T09:14:12.305Z,7.93
2022-12-22T09:16:40.273Z,7.99
2022-12-22T09:19:08.122Z,8.11
2022-12-22T09:21:36.375Z,8.15
2022-12-22T09:24:04.672Z,8.06
2022-12-22T09:26:32.536Z,8.20
2022-12-22T09:28:59.351Z,8.23
2022-12-22T09:31:27.644Z,8.40
2022-12-22T09:33:54.821Z,8.40
2022-12-22T09:36:29.681Z,8.41
2022-12-22T09:38:57.097Z,8.40
2022-12-22T09:41:43.545Z,8.53
2022-12-22T09:44:27.845Z,8.55
2022-12-22T09:47:01.072Z,8.58
2022-12-22T09:49:28.439Z,8.54
2022-12-22T09:52:01.621Z,8.48
2022-12-22T09:54:30.493Z,8.47
2022-12-22T09:56:58.364Z,8.50
2022-12-22T09:59:29.277Z,8.55
2022-12-22T10:02:14.986Z,8.60
2022-12-22T10:05:32.833Z,8.64
2022-12-22T10:08:06.259Z,8.62
2022-12-22T10:10:33.020Z,8.60
2022-12-22T10:13:02.703Z,8.51
2022-12-22T10:15:41.830Z,8.61
2022-12-22T10:18:25.829Z,8.51
2022-12-22T10:21:14.352Z,8.51
2022-12-22T10:23:46.315Z,8.58
2022-12-22T10:26:31.467Z,8.47
2022-12-22T10:29:13.840Z,8.53
2022-12-22T10:32:12.007Z,8.60
2022-12-22T10:35:03.114Z,8.59
2022-12-22T10:37:36.765Z,8.70
2022-12-22T10:40:19.895Z,8.73
2022-12-22T10:42:56.031Z,8.66
2022-12-22T10:45:26.788Z,8.72
2022-12-22T10:47:57.021Z,8.81
2022-12-22T10:50:24.025Z,8.68
2022-12-22T10:52:57.010Z,8.86
2022-12-22T10:55:26.868Z,8.83
2022-12-22T10:58:15.648Z,8.84
2022-12-22T11:00:42.794Z,8.87
2022-12-22T11:03:20.644Z,8.91
2022-12-22T11:05:49.297Z,8.88
2022-12-22T11:08:20.750Z,8.89
2022-12-22T11:11:04.277Z,8.93
2022-12-22T11:13:49.064Z,9.02
2022-12-22T11:16:59.801Z,9.06
2022-12-22T11:19:36.706Z,9.11
2022-12-22T11:22:40.351Z,9.13
2022-12-22T11:25:18.786Z,9.14
2022-12-22T11:28:28.644Z,9.18
2022-12-22T11:31:16.992Z,9.21
2022-12-22T11:34:20.682Z,9.21
2022-12-22T11:37:05.238Z,9.25
2022-12-22T11:40:06.755Z,9.29
2022-12-22T11:42:55.954Z,9.42
2022-12-22T11:45:51.026Z,9.34
2022-12-22T11:48:49.998Z,9.46
2022-12-22T11:51:55.236Z,9.55
2022-12-22T11:54:58.712Z,9.59
2022-12-22T11:58:09.922Z,9.59
2022-12-22T12:04:16.937Z,9.63
2022-12-22T12:06:56.362Z,9.55
2022-12-22T12:09:43.823Z,9.65
2022-12-22T12:12:28.039Z,9.68
2022-12-22T12:15:39.181Z,9.70
2022-12-22T12:18:30.569Z,9.72
2022-12-22T12:21:06.949Z,9.78
2022-12-22T12:23:56.496Z,9.75
2022-12-22T12:26:26.545Z,9.75
2022-12-22T12:29:40.928Z,9.95
2022-12-22T12:32:21.794Z,10.02
2022-12-22T12:34:54.865Z,10.03
2022-12-22T12:37:29.425Z,9.96
2022-12-22T12:40:16.903Z,9.99
2022-12-22T12:42:46.688Z,10.03
2022-12-22T12:45:49.411Z,10.09
2022-12-22T12:48:22.227Z,10.10
2022-12-22T12:50:57.063Z,10.10
2022-12-22T12:53:26.149Z,10.11
2022-12-22T12:55:55.168Z,10.20
2022-12-22T12:58:39.946Z,10.29
2022-12-22T13:01:56.291Z,10.27
2022-12-22T13:05:11.652Z,10.24
2022-12-22T13:08:18.543Z,10.28
2022-12-22T13:10:54.347Z,10.41
2022-12-22T13:13:24.117Z,10.52
2022-12-22T13:16:10.804Z,10.58
2022-12-22T13:18:49.477Z,10.51
2022-12-22T13:21:52.510Z,10.54
2022-12-22T13:24:29.924Z,10.60
2022-12-22T13:27:04.460Z,10.41
2022-12-22T13:29:42.921Z,10.50
2022-12-22T13:32:30.516Z,10.51
2022-12-22T13:35:30.975Z,10.57
2022-12-22T13:37:59.315Z,10.47
2022-12-22T13:40:41.981Z,10.53
2022-12-22T13:43:18.063Z,10.45
2022-12-22T13:45:51.323Z,10.40
2022-12-22T13:48:23.398Z,10.36
2022-12-22T13:51:00.977Z,10.40
2022-12-22T13:54:06.864Z,10.39
2022-12-22T13:56:26.105Z,10.34
2022-12-22T13:59:00.572Z,10.26
2022-12-22T14:01:27.532Z,10.27
2022-12-22T14:04:03.634Z,10.16
2022-12-22T14:06:40.008Z,10.14
2022-12-22T14:09:18.609Z,10.09
2022-12-22T14:12:08.460Z,10.06
2022-12-22T14:14:45.928Z,10.03
2022-12-22T14:17:32.595Z,10.03
2022-12-22T14:20:03.987Z,10.05
2022-12-22T14:22:44.195Z,10.07
2022-12-22T14:25:21.771Z,9.99
2022-12-22T14:27:53.304Z,9.77
2022-12-22T14:30:24.197Z,9.92
2022-12-22T14:32:56.825Z,9.83
2022-12-22T14:35:26.600Z,9.93
2022-12-22T14:38:07.771Z,9.87
2022-12-22T14:40:45.335Z,9.86
2022-12-22T14:43:18.016Z,9.86
2022-12-22T14:45:50.542Z,9.88
2022-12-22T14:48:26.227Z,9.75
2022-12-22T14:50:54.317Z,9.67
2022-12-22T14:53:45.053Z,9.74
2022-12-22T14:56:17.885Z,9.63
2022-12-22T14:58:46.483Z,9.74
2022-12-22T15:01:30.074Z,9.78
2022-12-22T15:04:18.983Z,9.79
2022-12-22T15:06:48.230Z,9.63
2022-12-22T15:09:14.904Z,9.69
2022-12-22T15:11:57.373Z,9.66
2022-12-22T15:14:27.099Z,9.64
2022-12-22T15:17:01.895Z,9.68
2022-12-22T15:19:33.407Z,9.57
2022-12-22T15:22:00.663Z,9.59
2022-12-22T15:24:27.648Z,9.54
2022-12-22T15:26:54.431Z,9.57
2022-12-22T15:29:21.237Z,9.46
2022-12-22T15:31:48.077Z,9.40
2022-12-22T15:34:23.705Z,9.43
2022-12-22T15:36:51.017Z,9.43
2022-12-22T15:39:20.241Z,9.47
2022-12-22T15:41:47.553Z,9.43
2022-12-22T15:44:14.642Z,9.38
2022-12-22T15:46:45.362Z,9.31
2022-12-22T15:49:18.505Z,9.24
2022-12-22T15:51:50.268Z,9.27
2022-12-22T15:54:18.181Z,9.06
2022-12-22T15:56:46.049Z,9.08
2022-12-22T15:59:24.240Z,9.14
2022-12-22T16:01:56.535Z,8.95
2022-12-22T16:04:28.499Z,8.89
2022-12-22T16:06:56.033Z,8.88
2022-12-22T16:09:31.440Z,8.87
2022-12-22T16:11:58.823Z,8.83
2022-12-22T16:14:25.612Z,8.88
2022-12-22T16:16:52.455Z,8.72
2022-12-22T16:19:19.542Z,8.68
2022-12-22T16:21:49.701Z,8.52
2022-12-22T16:24:44.206Z,8.65
2022-12-22T16:27:15.024Z,8.62
2022-12-22T16:29:47.919Z,8.54
2022-12-22T16:32:28.678Z,8.54
2022-12-22T16:35:18.698Z,8.51
2022-12-22T16:37:46.533Z,8.45
2022-12-22T16:40:14.338Z,8.55
2022-12-22T16:45:49.088Z,8.39
2022-12-22T16:48:30.544Z,8.42
2022-12-22T16:50:57.418Z,8.39
2022-12-22T16:53:24.242Z,8.39
2022-12-22T16:55:51.002Z,8.42
2022-12-22T16:58:17.863Z,8.35
2022-12-22T17:00:45.513Z,8.34
2022-12-22T17:03:43.243Z,8.22
2022-12-22T17:06:11.088Z,8.27
2022-12-22T17:08:42.408Z,8.17
2022-12-22T17:11:17.517Z,8.09
2022-12-22T17:13:44.301Z,8.11
2022-12-22T17:16:22.283Z,8.10
2022-12-22T17:18:49.818Z,8.07
2022-12-22T17:21:19.207Z,8.00
2022-12-22T17:23:52.250Z,7.91
2022-12-22T17:26:21.531Z,7.97
2022-12-22T17:28:49.479Z,7.90
2022-12-22T17:31:19.914Z,7.85
2022-12-22T17:33:47.271Z,7.91
2022-12-22T17:36:35.433Z,7.87
2022-12-22T17:39:03.772Z,7.77
2022-12-22T17:41:30.670Z,7.87
2022-12-22T17:43:57.693Z,7.89
2022-12-22T17:46:24.627Z,7.94
2022-12-22T17:48:51.446Z,7.93
2022-12-22T17:51:25.129Z,7.95
2022-12-22T17:53:55.042Z,7.94
2022-12-22T17:56:25.060Z,8.04
2022-12-22T17:58:52.285Z,8.06
2022-12-22T18:01:27.235Z,8.03
2022-12-22T18:03:54.626Z,8.07
2022-12-22T18:06:26.820Z,8.10
2022-12-22T18:08:55.496Z,8.02
2022-12-22T18:11:24.123Z,7.87
2022-12-22T18:13:52.576Z,7.86
2022-12-22T18:16:21.598Z,7.99
2022-12-22T18:18:48.506Z,7.96
2022-12-22T18:21:22.030Z,7.92
2022-12-22T18:23:51.208Z,7.94
2022-12-22T18:26:27.557Z,7.74
2022-12-22T18:28:55.584Z,7.82
2022-12-22T18:31:24.069Z,7.74
2022-12-22T18:33:51.762Z,7.69
2022-12-22T18:36:40.202Z,7.61
2022-12-22T18:39:11.848Z,7.53
2022-12-22T18:41:41.813Z,7.49
2022-12-22T18:44:18.862Z,7.42
2022-12-22T18:46:46.687Z,7.41
2022-12-22T18:49:13.570Z,7.28
2022-12-22T18:51:40.725Z,7.40
2022-12-22T18:54:21.954Z,7.24
2022-12-22T18:56:49.402Z,7.33
2022-12-22T18:59:31.322Z,7.42
2022-12-22T19:02:19.434Z,7.42
2022-12-22T19:04:46.356Z,7.46
2022-12-22T19:07:22.928Z,7.60
2022-12-22T19:09:50.534Z,7.59
2022-12-22T19:12:22.109Z,7.59
2022-12-22T19:14:52.752Z,7.80
2022-12-22T19:17:24.475Z,7.72
2022-12-22T19:19:51.240Z,7.83
2022-12-22T19:22:17.962Z,7.89
2022-12-22T19:24:45.694Z,7.92
2022-12-22T19:27:22.211Z,7.82
2022-12-22T19:29:49.453Z,7.95
2022-12-22T19:32:28.533Z,7.91
2022-12-22T19:34:55.579Z,8.02
2022-12-22T19:37:22.439Z,8.05
2022-12-22T19:39:49.244Z,8.01
2022-12-22T19:42:20.325Z,7.93
2022-12-22T19:44:47.331Z,8.07
2022-12-22T19:47:19.666Z,8.07
2022-12-22T19:49:48.354Z,8.00
2022-12-22T19:52:15.253Z,8.08
2022-12-22T19:54:41.987Z,8.01
2022-12-22T19:57:17.727Z,8.05
2022-12-22T19:59:48.294Z,8.07
2022-12-22T20:02:21.527Z,8.12
2022-12-22T20:04:49.502Z,8.02
2022-12-22T20:07:18.803Z,8.01
2022-12-22T20:09:45.740Z,8.03
2022-12-22T20:12:33.943Z,8.11
2022-12-22T20:15:02.048Z,8.05
2022-12-22T20:17:28.863Z,7.98
2022-12-22T20:19:55.630Z,8.04
2022-12-22T20:22:23.512Z,8.02
2022-12-22T20:24:54.532Z,8.04
2022-12-22T20:27:35.324Z,7.94
2022-12-22T20:30:02.077Z,8.01
2022-12-22T20:32:28.999Z,7.99
2022-12-22T20:34:56.283Z,8.06
2022-12-22T20:37:23.167Z,7.94
2022-12-22T20:39:49.939Z,8.09
2022-12-22T20:42:22.989Z,7.95
2022-12-22T20:45:03.406Z,7.97
2022-12-22T20:47:32.724Z,8.04
2022-12-22T20:49:59.762Z,8.01
2022-12-22T20:52:26.582Z,7.99
2022-12-22T20:54:53.348Z,8.07
2022-12-22T20:57:23.319Z,8.07
2022-12-22T20:59:56.198Z,8.14
2022-12-22T21:02:28.084Z,8.03
2022-12-22T21:04:55.681Z,8.11
2022-12-22T21:07:22.436Z,8.08
2022-12-22T21:09:49.249Z,8.00
2022-12-22T21:12:16.061Z,8.11
2022-12-22T21:14:42.875Z,8.04
2022-12-22T21:17:17.495Z,8.10
2022-12-22T21:19:44.704Z,8.10
2022-12-22T21:22:11.612Z,8.07
2022-12-22T21:24:38.654Z,8.03
2022-12-22T21:27:05.689Z,8.15
2022-12-22T21:29:32.607Z,8.17
2022-12-22T21:31:59.391Z,7.96
2022-12-22T21:34:26.167Z,7.96
2022-12-22T21:37:00.259Z,8.09
2022-12-22T21:39:33.410Z,8.08
2022-12-22T21:42:00.219Z,8.03
2022-12-22T21:44:28.533Z,7.96
2022-12-22T21:46:56.569Z,7.98
2022-12-22T21:49:28.154Z,8.07
2022-12-22T21:51:55.536Z,8.03
2022-12-22T21:54:24.948Z,8.01
2022-12-22T21:56:53.102Z,7.99
2022-12-22T21:59:20.412Z,7.99
2022-12-22T22:01:47.867Z,8.01
2022-12-22T22:04:15.105Z,8.03
2022-12-22T22:06:41.866Z,7.99
2022-12-22T22:09:08.696Z,7.89
2022-12-22T22:11:58.735Z,7.96
2022-12-22T22:14:26.850Z,7.92
2022-12-22T22:16:54.180Z,7.95
2022-12-22T22:19:20.988Z,7.86
2022-12-22T22:21:47.746Z,7.94
2022-12-22T22:24:14.876Z,7.72
2022-12-22T22:26:45.798Z,7.92
2022-12-22T22:29:12.701Z,7.95
2022-12-22T22:31:40.400Z,7.93
2022-12-22T22:34:07.283Z,7.76
2022-12-22T22:36:34.124Z,7.99
2022-12-22T22:39:00.922Z,7.89
2022-12-22T22:41:29.284Z,7.99
2022-12-22T22:43:56.067Z,7.97
2022-12-22T22:46:22.970Z,7.95
2022-12-22T22:48:50.538Z,8.09
2022-12-22T22:51:17.309Z,8.01
2022-12-22T22:53:44.178Z,7.99
2022-12-22T22:56:10.922Z,8.08
2022-12-22T22:58:37.675Z,8.02
2022-12-22T23:01:10.575Z,8.07
2022-12-22T23:03:38.073Z,8.09
2022-12-22T23:06:09.026Z,8.09
2022-12-22T23:08:36.485Z,8.11
2022-12-22T23:11:04.497Z,8.03
2022-12-22T23:13:31.845Z,7.99
2022-12-22T23:16:02.376Z,8.06
2022-12-22T23:18:30.602Z,8.12
2022-12-22T23:20:59.329Z,8.12
2022-12-22T23:23:26.117Z,8.09
2022-12-22T23:25:53.026Z,8.16
2022-12-22T23:28:20.583Z,8.19
2022-12-22T23:30:50.790Z,8.11
2022-12-22T23:33:19.812Z,8.25
2022-12-22T23:35:49.259Z,8.16
2022-12-22T23:38:18.446Z,8.15
2022-12-22T23:40:53.909Z,8.16
2022-12-22T23:43:21.199Z,8.11
2022-12-22T23:45:47.971Z,8.09
2022-12-22T23:48:15.141Z,8.06
2022-12-22T23:50:42.247Z,8.07
2022-12-22T23:53:09.122Z,8.12
2022-12-22T23:55:35.867Z,8.11
2022-12-22T23:58:02.710Z,8.15
